Balance de Rebecq

Balances > Rebecq > Ce mois-ci

Ce mois-ci

Voir les données pour : cette semaine | hier

Graphiques

  Température (°C)   Température intérieure (°C)   Humidité (%)   Poids (kg)   Pluie (l/m²)



Journal

30 août 2019 : Reine dans cage Menna et fin nourrisage

Tableau

Date Température (°C)Température int. (°C)Humidité (%)Pluie (l/m²)Poids (kg)
minmaxmoyminmaxmoyminmaxmoypoidsvariation
21/08/1910,721,517,431,533,532,7638872,7033,80,0
22/08/1911,723,318,632,033,733,1608972,1038,1+4,3
23/08/1912,025,420,233,034,834,1618771,8037,6-0,5
24/08/1914,927,922,832,934,533,9518767,8037,2-0,4
25/08/1916,228,623,833,335,534,4538668,0037,1-0,1
26/08/1916,829,724,633,435,234,6558568,8041,0+3,9
27/08/1919,730,125,634,135,134,7508567,8041,4+0,4
28/08/1921,127,423,933,634,434,0658476,71041,40,0
29/08/1919,221,720,533,533,933,7688979,11141,0-0,4
30/08/1912,622,418,532,333,833,2608875,7045,2+4,2
31/08/1912,527,020,733,634,534,2608671,4045,6+0,4
01/09/1916,421,118,534,234,434,2598469,5045,0-0,6
02/09/1910,920,516,833,934,334,1548467,7044,5-0,5
03/09/1914,218,917,033,334,033,6758881,4044,3-0,2
04/09/1914,420,517,332,733,633,2708780,1344,0-0,3
05/09/1912,616,314,431,833,132,3718980,5043,8-0,2
06/09/197,518,814,031,031,331,1678976,5043,6-0,2
07/09/1913,917,015,030,331,130,8779085,41343,5-0,1
08/09/1911,516,914,530,130,830,3668978,0143,3-0,2
09/09/198,216,813,229,530,229,9668977,7043,1-0,2
10/09/199,519,515,529,330,529,8618673,1042,9-0,2
11/09/1912,718,015,829,029,729,3809287,4142,8-0,1
12/09/1917,522,019,729,930,930,3739183,0142,7-0,1
13/09/1917,320,918,829,630,430,1728982,7042,5-0,2
14/09/1912,221,017,228,930,329,6608775,7042,3-0,2
15/09/199,621,516,628,630,129,3628775,4042,2-0,1
16/09/1913,620,016,928,629,529,0838886,2042,20,0
17/09/1913,718,615,929,130,029,5638773,0042,0-0,2
18/09/197,617,213,226,630,628,6618773,2041,9-0,1
19/09/198,017,013,222,026,824,6668875,1042,1+0,2